createdAt,value
2022-11-15T00:00:47.336Z,32.10
2022-11-15T00:03:22.235Z,17.70
2022-11-15T00:05:49.279Z,22.95
2022-11-15T00:08:16.180Z,18.00
2022-11-15T00:10:42.925Z,15.07
2022-11-15T00:13:13.933Z,19.70
2022-11-15T00:15:41.793Z,18.55
2022-11-15T00:18:14.169Z,16.23
2022-11-15T00:20:41.087Z,22.55
2022-11-15T00:23:08.072Z,17.45
2022-11-15T00:25:34.865Z,32.20
2022-11-15T00:28:01.937Z,17.33
2022-11-15T00:30:29.399Z,19.77
2022-11-15T00:32:56.231Z,16.23
2022-11-15T00:35:23.537Z,14.75
2022-11-15T00:37:50.116Z,14.65
2022-11-15T00:40:16.966Z,24.52
2022-11-15T00:42:43.589Z,24.15
2022-11-15T00:45:10.849Z,21.50
2022-11-15T00:47:37.536Z,15.60
2022-11-15T00:50:05.261Z,14.88
2022-11-15T00:52:31.879Z,17.58
2022-11-15T00:54:58.551Z,14.50
2022-11-15T00:57:25.190Z,18.33
2022-11-15T00:59:51.786Z,19.05
2022-11-15T01:02:18.429Z,17.58
2022-11-15T01:04:45.101Z,16.98
2022-11-15T01:07:12.065Z,14.77
2022-11-15T01:09:38.757Z,21.90
2022-11-15T01:12:05.770Z,20.95
2022-11-15T01:14:32.462Z,19.60
2022-11-15T01:16:59.070Z,16.52
2022-11-15T01:19:25.779Z,18.60
2022-11-15T01:21:52.896Z,17.77
2022-11-15T01:24:19.624Z,16.92
2022-11-15T01:26:46.296Z,15.38
2022-11-15T01:29:13.321Z,18.08
2022-11-15T01:31:40.081Z,17.15
2022-11-15T01:34:06.797Z,14.32
2022-11-15T01:36:33.426Z,15.00
2022-11-15T01:39:00.440Z,17.02
2022-11-15T01:41:33.444Z,16.17
2022-11-15T01:44:37.712Z,22.60
2022-11-15T01:47:14.803Z,14.48
2022-11-15T01:49:51.494Z,16.52
2022-11-15T01:52:20.744Z,18.83
2022-11-15T01:54:51.498Z,11.07
2022-11-15T01:57:18.103Z,14.60
2022-11-15T01:59:46.459Z,15.80
2022-11-15T02:02:14.689Z,13.73
2022-11-15T02:04:47.059Z,14.13
2022-11-15T02:07:18.359Z,14.48
2022-11-15T02:09:46.639Z,15.50
2022-11-15T02:12:16.987Z,11.18
2022-11-15T02:14:47.733Z,14.48
2022-11-15T02:17:47.019Z,14.82
2022-11-15T02:20:45.836Z,13.20
2022-11-15T02:23:46.887Z,13.95
2022-11-15T02:26:29.600Z,14.82
2022-11-15T02:29:12.785Z,16.63
2022-11-15T02:31:56.339Z,13.30
2022-11-15T02:34:49.409Z,12.13
2022-11-15T02:37:27.947Z,13.48
2022-11-15T02:40:36.445Z,20.05
2022-11-15T02:43:30.029Z,14.55
2022-11-15T02:46:08.025Z,16.92
2022-11-15T02:48:36.093Z,16.63
2022-11-15T02:51:03.188Z,18.35
2022-11-15T02:53:30.193Z,15.73
2022-11-15T02:55:58.273Z,15.43
2022-11-15T02:58:24.888Z,14.10
2022-11-15T03:01:05.381Z,13.30
2022-11-15T03:04:01.884Z,12.65
2022-11-15T03:06:56.927Z,12.57
2022-11-15T03:09:54.929Z,11.90
2022-11-15T03:13:09.885Z,12.88
2022-11-15T03:15:41.521Z,11.02
2022-11-15T03:18:20.634Z,12.63
2022-11-15T03:20:49.327Z,17.17
2022-11-15T03:23:16.961Z,15.82
2022-11-15T03:25:48.159Z,14.27
2022-11-15T03:28:26.227Z,10.63
2022-11-15T03:30:54.846Z,10.98
2022-11-15T03:33:22.991Z,11.05
2022-11-15T03:35:50.845Z,12.98
2022-11-15T03:38:27.018Z,10.27
2022-11-15T03:41:01.700Z,11.23
2022-11-15T03:43:45.064Z,8.30
2022-11-15T03:46:24.969Z,17.10
2022-11-15T03:48:57.818Z,8.48
2022-11-15T03:51:24.580Z,11.93
2022-11-15T03:53:52.115Z,11.90
2022-11-15T03:56:18.714Z,10.75
2022-11-15T03:58:45.406Z,12.70
2022-11-15T04:01:12.075Z,12.00
2022-11-15T04:03:38.869Z,10.82
2022-11-15T04:06:05.734Z,10.18
2022-11-15T04:08:32.353Z,12.05
2022-11-15T04:10:59.035Z,8.90
2022-11-15T04:13:25.661Z,11.68
2022-11-15T04:15:52.897Z,12.13
2022-11-15T04:18:19.532Z,12.00
2022-11-15T04:21:04.609Z,11.73
2022-11-15T04:24:06.477Z,11.18
2022-11-15T04:26:33.403Z,12.23
2022-11-15T04:29:18.582Z,10.55
2022-11-15T04:31:45.197Z,11.57
2022-11-15T04:34:11.782Z,11.77
2022-11-15T04:36:57.338Z,15.73
2022-11-15T04:39:23.920Z,10.10
2022-11-15T04:41:50.619Z,11.10
2022-11-15T04:44:17.352Z,11.00
2022-11-15T04:46:44.104Z,11.00
2022-11-15T04:49:10.736Z,9.63
2022-11-15T04:51:37.452Z,10.15
2022-11-15T04:54:04.197Z,12.05
2022-11-15T04:56:30.944Z,12.07
2022-11-15T04:58:57.608Z,11.02
2022-11-15T05:01:24.423Z,13.50
2022-11-15T05:04:09.977Z,15.23
2022-11-15T05:06:36.743Z,13.77
2022-11-15T05:09:04.066Z,14.52
2022-11-15T05:11:31.043Z,11.68
2022-11-15T05:13:57.786Z,11.80
2022-11-15T05:16:24.526Z,12.13
2022-11-15T05:18:55.545Z,12.98
2022-11-15T05:21:22.324Z,13.38
2022-11-15T05:23:48.969Z,13.00
2022-11-15T05:26:18.453Z,12.45
2022-11-15T05:28:45.712Z,16.27
2022-11-15T05:31:17.329Z,12.63
2022-11-15T05:33:45.022Z,12.85
2022-11-15T05:36:41.165Z,10.27
2022-11-15T05:39:09.328Z,11.07
2022-11-15T05:41:51.055Z,12.32
2022-11-15T05:44:22.282Z,16.17
2022-11-15T05:46:50.700Z,13.65
2022-11-15T05:49:20.330Z,12.75
2022-11-15T05:51:49.237Z,11.88
2022-11-15T05:54:18.547Z,14.60
2022-11-15T05:56:45.247Z,12.85
2022-11-15T05:59:12.028Z,13.70
2022-11-15T06:01:40.094Z,14.43
2022-11-15T06:04:07.034Z,17.10
2022-11-15T06:06:33.789Z,12.60
2022-11-15T06:09:00.503Z,12.80
2022-11-15T06:11:27.283Z,14.10
2022-11-15T06:13:53.980Z,10.60
2022-11-15T06:16:20.604Z,11.68
2022-11-15T06:18:47.215Z,12.23
2022-11-15T06:21:13.867Z,16.77
2022-11-15T06:23:40.508Z,13.65
2022-11-15T06:26:07.358Z,11.85
2022-11-15T06:28:34.456Z,14.40
2022-11-15T06:31:05.895Z,11.55
2022-11-15T06:33:33.126Z,11.75
2022-11-15T06:36:05.023Z,12.15
2022-11-15T06:38:31.872Z,14.52
2022-11-15T06:41:07.364Z,16.23
2022-11-15T06:43:34.999Z,17.15
2022-11-15T06:46:03.251Z,15.98
2022-11-15T06:48:31.577Z,12.98
2022-11-15T06:51:01.081Z,15.35
2022-11-15T06:53:29.004Z,19.20
2022-11-15T06:56:00.149Z,11.35
2022-11-15T06:58:26.842Z,15.00
2022-11-15T07:00:53.553Z,15.23
2022-11-15T07:03:20.155Z,12.52
2022-11-15T07:05:55.514Z,17.52
2022-11-15T07:08:23.867Z,13.40
2022-11-15T07:10:51.223Z,15.60
2022-11-15T07:13:17.829Z,15.35
2022-11-15T07:15:44.512Z,12.77
2022-11-15T07:18:11.078Z,12.68
2022-11-15T07:20:37.804Z,13.50
2022-11-15T07:23:05.963Z,11.57
2022-11-15T07:25:32.715Z,14.82
2022-11-15T07:28:00.323Z,13.40
2022-11-15T07:30:27.993Z,9.75
2022-11-15T07:32:55.440Z,12.23
2022-11-15T07:35:22.253Z,14.63
2022-11-15T07:38:00.698Z,11.73
2022-11-15T07:40:29.551Z,12.70
2022-11-15T07:43:04.383Z,12.07
2022-11-15T07:45:31.426Z,12.32
2022-11-15T07:47:58.199Z,12.30
2022-11-15T07:50:25.466Z,11.70
2022-11-15T07:53:00.474Z,12.45
2022-11-15T07:55:30.082Z,12.50
2022-11-15T07:58:04.193Z,12.55
2022-11-15T08:00:31.459Z,11.48
2022-11-15T08:03:04.780Z,16.60
2022-11-15T08:05:31.632Z,14.77
2022-11-15T08:07:58.538Z,16.02
2022-11-15T08:10:25.990Z,11.10
2022-11-15T08:13:06.378Z,13.82
2022-11-15T08:15:34.532Z,13.90
2022-11-15T08:18:03.608Z,10.73
2022-11-15T08:20:31.255Z,10.02
2022-11-15T08:23:02.487Z,7.15
2022-11-15T08:25:31.119Z,9.25
2022-11-15T08:27:59.891Z,8.13
2022-11-15T08:30:27.320Z,8.00
2022-11-15T08:32:56.730Z,9.00
2022-11-15T08:35:28.628Z,11.00
2022-11-15T08:37:55.761Z,14.57
2022-11-15T08:40:23.743Z,10.98
2022-11-15T08:42:50.474Z,11.65
2022-11-15T08:45:17.141Z,11.50
2022-11-15T08:47:43.754Z,14.93
2022-11-15T08:50:10.676Z,13.82
2022-11-15T08:52:37.307Z,18.10
2022-11-15T08:55:04.305Z,17.05
2022-11-15T08:57:31.577Z,13.88
2022-11-15T08:59:58.476Z,14.10
2022-11-15T09:02:25.254Z,15.48
2022-11-15T09:04:51.893Z,14.68
2022-11-15T09:07:19.131Z,17.02
2022-11-15T09:09:46.013Z,12.55
2022-11-15T09:12:12.627Z,15.52
2022-11-15T09:14:39.609Z,15.23
2022-11-15T09:17:09.893Z,13.65
2022-11-15T09:19:37.753Z,19.02
2022-11-15T09:22:07.699Z,23.98
2022-11-15T09:24:34.859Z,15.25
2022-11-15T09:27:01.727Z,17.80
2022-11-15T09:29:28.770Z,15.20
2022-11-15T09:31:55.662Z,14.82
2022-11-15T09:34:22.361Z,19.88
2022-11-15T09:36:48.997Z,16.95
2022-11-15T09:39:15.581Z,14.68
2022-11-15T09:42:03.695Z,14.40
2022-11-15T09:44:39.375Z,23.63
2022-11-15T09:47:26.409Z,18.23
2022-11-15T09:50:00.754Z,19.27
2022-11-15T09:52:28.365Z,18.30
2022-11-15T09:54:56.064Z,16.58
2022-11-15T09:57:38.807Z,14.80
2022-11-15T10:03:14.903Z,20.27
2022-11-15T10:05:55.146Z,15.40
2022-11-15T10:08:38.454Z,21.65
2022-11-15T10:11:36.095Z,17.88
2022-11-15T10:14:01.615Z,20.05
2022-11-15T10:16:54.175Z,16.08
2022-11-15T10:19:38.743Z,16.38
2022-11-15T10:22:27.353Z,16.10
2022-11-15T10:27:30.700Z,18.58
2022-11-15T10:29:57.286Z,14.50
2022-11-15T10:32:23.924Z,16.55
2022-11-15T10:34:51.435Z,15.13
2022-11-15T10:37:36.217Z,15.15
2022-11-15T10:40:15.420Z,15.23
2022-11-15T10:42:42.025Z,14.32
2022-11-15T10:45:26.833Z,15.70
2022-11-15T10:47:53.496Z,21.17
2022-11-15T10:50:33.229Z,16.45
2022-11-15T10:55:32.548Z,17.38
2022-11-15T10:58:20.133Z,19.85
2022-11-15T11:00:47.529Z,12.60
2022-11-15T11:03:38.484Z,14.88
2022-11-15T11:06:18.000Z,14.85
2022-11-15T11:09:03.266Z,13.80
2022-11-15T11:11:50.242Z,16.25
2022-11-15T11:14:33.463Z,16.85
2022-11-15T11:17:18.987Z,15.40
2022-11-15T11:20:20.741Z,16.02
2022-11-15T11:23:27.860Z,15.07
2022-11-15T11:26:09.463Z,19.83
2022-11-15T11:29:14.024Z,15.73
2022-11-15T11:31:52.622Z,15.07
2022-11-15T11:34:56.797Z,16.50
2022-11-15T11:37:47.071Z,17.65
2022-11-15T11:40:31.678Z,17.92
2022-11-15T11:43:33.775Z,17.17
2022-11-15T11:46:37.884Z,13.95
2022-11-15T11:49:11.214Z,18.67
2022-11-15T11:51:43.247Z,20.08
2022-11-15T11:54:26.199Z,17.63
2022-11-15T11:56:54.959Z,15.82
2022-11-15T11:59:50.605Z,18.03
2022-11-15T12:02:30.116Z,18.40
2022-11-15T12:05:10.690Z,16.45
2022-11-15T12:07:40.135Z,23.02
2022-11-15T12:10:16.236Z,20.75
2022-11-15T12:12:59.629Z,15.15
2022-11-15T12:15:32.025Z,17.60
2022-11-15T12:18:01.075Z,17.20
2022-11-15T12:20:34.415Z,19.40
2022-11-15T12:23:29.712Z,16.23
2022-11-15T12:25:58.945Z,16.63
2022-11-15T12:29:05.938Z,19.20
2022-11-15T12:31:41.800Z,16.90
2022-11-15T12:34:23.702Z,16.60
2022-11-15T12:36:52.220Z,18.20
2022-11-15T12:39:19.981Z,15.07
2022-11-15T12:41:55.815Z,17.23
2022-11-15T12:44:31.365Z,17.25
2022-11-15T12:46:57.917Z,14.32
2022-11-15T12:49:24.470Z,12.52
2022-11-15T12:51:52.817Z,14.93
2022-11-15T12:54:22.574Z,19.98
2022-11-15T12:59:59.652Z,19.00
2022-11-15T13:02:40.865Z,14.80
2022-11-15T13:05:16.877Z,14.95
2022-11-15T13:07:43.708Z,16.30
2022-11-15T13:10:14.107Z,15.77
2022-11-15T13:12:43.684Z,13.38
2022-11-15T13:15:13.364Z,15.27
2022-11-15T13:20:07.854Z,16.40
2022-11-15T13:22:52.613Z,14.25
2022-11-15T13:25:22.330Z,13.07
2022-11-15T13:30:31.910Z,14.70
2022-11-15T13:33:09.271Z,16.52
2022-11-15T13:35:41.055Z,16.83
2022-11-15T13:38:19.365Z,18.02
2022-11-15T13:40:46.084Z,17.38
2022-11-15T13:43:36.196Z,16.48
2022-11-15T13:46:17.609Z,16.23
2022-11-15T13:48:46.159Z,17.52
2022-11-15T13:51:37.436Z,13.88
2022-11-15T13:54:34.618Z,14.43
2022-11-15T13:57:10.842Z,15.27
2022-11-15T13:59:49.506Z,14.38
2022-11-15T14:02:21.057Z,12.75
2022-11-15T14:04:54.349Z,11.80
2022-11-15T14:07:24.003Z,14.15
2022-11-15T14:12:31.186Z,12.80
2022-11-15T14:14:59.549Z,10.75
2022-11-15T14:17:31.923Z,13.13
2022-11-15T14:19:59.073Z,13.02
2022-11-15T14:22:30.361Z,15.57
2022-11-15T14:25:08.913Z,12.90
2022-11-15T14:27:35.872Z,12.60
2022-11-15T14:30:02.864Z,11.07
2022-11-15T14:32:37.859Z,15.48
2022-11-15T14:35:04.940Z,11.88
2022-11-15T14:37:36.115Z,13.88
2022-11-15T14:40:05.097Z,11.45
2022-11-15T14:42:32.225Z,14.00
2022-11-15T14:44:58.921Z,15.07
2022-11-15T14:47:25.695Z,11.52
2022-11-15T14:49:52.404Z,13.52
2022-11-15T14:52:31.761Z,11.77
2022-11-15T14:57:26.769Z,13.20
2022-11-15T14:59:53.625Z,8.27
2022-11-15T15:02:25.971Z,11.95
2022-11-15T15:04:52.599Z,8.85
2022-11-15T15:07:19.590Z,11.32
2022-11-15T15:09:47.269Z,8.50
2022-11-15T15:12:23.454Z,13.05
2022-11-15T15:14:51.432Z,10.07
2022-11-15T15:17:18.402Z,14.10
2022-11-15T15:19:45.042Z,17.20
2022-11-15T15:22:22.647Z,22.33
2022-11-15T15:24:49.343Z,23.13
2022-11-15T15:27:15.954Z,15.48
2022-11-15T15:29:42.529Z,9.10
2022-11-15T15:32:12.461Z,8.93
2022-11-15T15:34:40.177Z,8.85
2022-11-15T15:37:23.887Z,17.20
2022-11-15T15:39:54.924Z,10.52
2022-11-15T15:42:22.458Z,13.23
2022-11-15T15:44:50.027Z,11.65
2022-11-15T15:47:20.471Z,12.25
2022-11-15T15:49:48.085Z,6.25
2022-11-15T15:52:14.749Z,14.02
2022-11-15T15:54:41.781Z,10.77
2022-11-15T15:57:11.713Z,12.07
2022-11-15T15:59:38.331Z,17.13
2022-11-15T16:02:05.419Z,15.70
2022-11-15T16:04:32.014Z,16.98
2022-11-15T16:07:02.188Z,14.30
2022-11-15T16:09:47.788Z,7.60
2022-11-15T16:12:15.173Z,7.35
2022-11-15T16:14:41.800Z,11.15
2022-11-15T16:17:17.678Z,7.35
2022-11-15T16:19:44.284Z,10.65
2022-11-15T16:22:10.892Z,12.45
2022-11-15T16:24:37.591Z,15.63
2022-11-15T16:27:04.576Z,7.45
2022-11-15T16:29:31.216Z,8.07
2022-11-15T16:31:58.098Z,7.43
2022-11-15T16:34:26.648Z,6.65
2022-11-15T16:36:56.767Z,9.02
2022-11-15T16:39:24.004Z,7.25
2022-11-15T16:41:50.653Z,13.77
2022-11-15T16:44:17.291Z,34.40
2022-11-15T16:46:44.232Z,28.83
2022-11-15T16:49:15.271Z,21.92
2022-11-15T16:51:42.580Z,5.07
2022-11-15T16:54:09.260Z,8.25
2022-11-15T16:56:35.880Z,15.52
2022-11-15T16:59:02.651Z,19.20
2022-11-15T17:01:31.942Z,7.93
2022-11-15T17:03:59.273Z,9.85
2022-11-15T17:06:26.855Z,10.60
2022-11-15T17:08:54.327Z,9.27
2022-11-15T17:11:22.701Z,13.32
2022-11-15T17:13:49.561Z,10.00
2022-11-15T17:16:17.781Z,7.53
2022-11-15T17:18:47.469Z,7.93
2022-11-15T17:23:42.089Z,10.73
2022-11-15T17:26:28.784Z,9.48
2022-11-15T17:28:57.233Z,11.15
2022-11-15T17:31:25.282Z,16.00
2022-11-15T17:33:51.910Z,23.92
2022-11-15T17:36:18.514Z,34.03
2022-11-15T17:38:50.352Z,18.60
2022-11-15T17:41:17.089Z,10.90
2022-11-15T17:43:44.341Z,13.57
2022-11-15T17:46:17.538Z,7.78
2022-11-15T17:48:44.969Z,10.13
2022-11-15T17:51:14.016Z,9.55
2022-11-15T17:53:43.983Z,12.38
2022-11-15T17:56:15.899Z,10.18
2022-11-15T17:58:47.138Z,11.75
2022-11-15T18:01:21.541Z,11.38
2022-11-15T18:03:48.348Z,8.90
2022-11-15T18:06:16.022Z,7.65
2022-11-15T18:08:44.776Z,9.98
2022-11-15T18:11:21.894Z,29.67
2022-11-15T18:13:52.482Z,7.53
2022-11-15T18:16:23.031Z,9.68
2022-11-15T18:18:49.703Z,7.28
2022-11-15T18:21:19.931Z,15.07
2022-11-15T18:23:47.308Z,9.02
2022-11-15T18:26:17.951Z,14.73
2022-11-15T18:28:48.889Z,10.77
2022-11-15T18:31:28.200Z,5.22
2022-11-15T18:33:55.482Z,6.35
2022-11-15T18:36:24.603Z,7.85
2022-11-15T18:38:59.258Z,4.63
2022-11-15T18:41:28.400Z,6.35
2022-11-15T18:43:56.317Z,6.72
2022-11-15T18:46:24.774Z,5.50
2022-11-15T18:48:52.748Z,6.30
2022-11-15T18:51:21.838Z,8.00
2022-11-15T18:53:49.071Z,6.20
2022-11-15T18:56:18.118Z,5.47
2022-11-15T18:58:47.302Z,13.15
2022-11-15T19:01:16.210Z,6.35
2022-11-15T19:03:46.623Z,8.02
2022-11-15T19:06:18.523Z,6.53
2022-11-15T19:08:47.687Z,6.63
2022-11-15T19:11:17.588Z,6.88
2022-11-15T19:13:46.072Z,8.73
2022-11-15T19:16:14.972Z,7.82
2022-11-15T19:18:42.331Z,5.22
2022-11-15T19:21:14.901Z,4.68
2022-11-15T19:23:43.509Z,4.45
2022-11-15T19:26:15.473Z,7.10
2022-11-15T19:28:43.053Z,5.53
2022-11-15T19:31:14.775Z,10.98
2022-11-15T19:33:43.251Z,8.48
2022-11-15T19:36:14.196Z,5.75
2022-11-15T19:38:41.642Z,6.38
2022-11-15T19:41:12.048Z,4.80
2022-11-15T19:43:38.777Z,3.90
2022-11-15T19:46:06.775Z,3.83
2022-11-15T19:48:34.647Z,3.55
2022-11-15T19:51:19.488Z,5.63
2022-11-15T19:53:46.179Z,4.78
2022-11-15T19:56:15.662Z,5.28
2022-11-15T19:58:42.708Z,3.33
2022-11-15T20:01:13.250Z,4.55
2022-11-15T20:03:40.804Z,6.35
2022-11-15T20:06:10.041Z,6.30
2022-11-15T20:08:37.380Z,5.32
2022-11-15T20:11:05.090Z,7.20
2022-11-15T20:13:32.489Z,6.15
2022-11-15T20:15:59.935Z,4.80
2022-11-15T20:18:28.696Z,4.93
2022-11-15T20:20:59.178Z,6.80
2022-11-15T20:23:26.744Z,8.63
2022-11-15T20:25:54.030Z,11.52
2022-11-15T20:28:23.465Z,7.22
2022-11-15T20:30:52.992Z,6.78
2022-11-15T20:33:20.119Z,12.25
2022-11-15T20:35:46.761Z,8.80
2022-11-15T20:38:13.534Z,9.05
2022-11-15T20:40:40.982Z,9.38
2022-11-15T20:43:12.461Z,11.68
2022-11-15T20:45:39.660Z,10.48
2022-11-15T20:48:06.664Z,9.02
2022-11-15T20:50:42.536Z,9.43
2022-11-15T20:53:11.559Z,10.73
2022-11-15T20:55:43.494Z,8.52
2022-11-15T20:58:10.907Z,16.25
2022-11-15T21:00:38.332Z,6.90
2022-11-15T21:03:08.675Z,8.93
2022-11-15T21:05:38.570Z,8.73
2022-11-15T21:08:05.809Z,8.80
2022-11-15T21:10:51.415Z,7.80
2022-11-15T21:13:18.403Z,8.68
2022-11-15T21:15:45.090Z,10.93
2022-11-15T21:18:11.705Z,8.82
2022-11-15T21:20:38.328Z,10.70
2022-11-15T21:23:05.007Z,8.18
2022-11-15T21:25:33.599Z,10.32
2022-11-15T21:28:00.455Z,8.57
2022-11-15T21:30:27.160Z,7.50
2022-11-15T21:32:53.802Z,9.27
2022-11-15T21:35:20.499Z,10.38
2022-11-15T21:37:50.532Z,12.95
2022-11-15T21:40:20.179Z,8.50
2022-11-15T21:42:46.859Z,7.43
2022-11-15T21:45:13.491Z,8.60
2022-11-15T21:47:44.775Z,7.07
2022-11-15T21:50:12.980Z,5.55
2022-11-15T21:52:40.676Z,10.52
2022-11-15T21:55:08.189Z,6.85
2022-11-15T21:57:34.862Z,6.97
2022-11-15T22:00:20.187Z,6.32
2022-11-15T22:02:46.988Z,9.35
2022-11-15T22:05:13.775Z,10.18
2022-11-15T22:07:40.419Z,8.40
2022-11-15T22:10:07.411Z,5.95
2022-11-15T22:12:34.061Z,8.45
2022-11-15T22:15:00.679Z,9.65
2022-11-15T22:17:47.266Z,9.40
2022-11-15T22:20:43.096Z,7.68
2022-11-15T22:23:03.900Z,9.20
2022-11-15T22:25:30.670Z,11.15
2022-11-15T22:27:57.394Z,10.88
2022-11-15T22:30:24.673Z,7.95
2022-11-15T22:32:51.354Z,11.25
2022-11-15T22:35:17.974Z,12.20
2022-11-15T22:37:44.664Z,11.27
2022-11-15T22:40:11.343Z,8.80
2022-11-15T22:42:38.021Z,8.77
2022-11-15T22:45:04.998Z,8.23
2022-11-15T22:47:31.706Z,10.27
2022-11-15T22:49:58.370Z,8.38
2022-11-15T22:52:25.092Z,12.98
2022-11-15T22:54:51.722Z,10.13
2022-11-15T22:57:18.430Z,8.88
2022-11-15T22:59:45.147Z,7.90
2022-11-15T23:02:11.760Z,11.13
2022-11-15T23:04:38.371Z,9.13
2022-11-15T23:07:05.117Z,8.38
2022-11-15T23:09:31.883Z,10.57
2022-11-15T23:12:17.369Z,11.88
2022-11-15T23:14:44.095Z,9.88
2022-11-15T23:17:10.708Z,10.90
2022-11-15T23:19:37.366Z,10.70
2022-11-15T23:22:22.466Z,9.35
2022-11-15T23:24:49.277Z,11.13
2022-11-15T23:27:19.936Z,14.35
2022-11-15T23:30:06.141Z,18.35
2022-11-15T23:32:52.143Z,20.23
2022-11-15T23:35:18.920Z,17.38
2022-11-15T23:37:45.756Z,15.02
2022-11-15T23:40:12.724Z,13.88
2022-11-15T23:42:39.485Z,15.10
2022-11-15T23:45:06.945Z,13.57
2022-11-15T23:47:33.589Z,11.70
2022-11-15T23:50:00.200Z,10.32
2022-11-15T23:52:26.842Z,16.17
2022-11-15T23:54:53.547Z,14.18
2022-11-15T23:57:20.247Z,13.93
2022-11-15T23:59:47.642Z,13.52
